sensor_id;sensor_type;location;lat;lon;timestamp;P1;durP1;ratioP1;P2;durP2;ratioP2
71814;SDS011;59659;41.520;23.794;2023-03-14T00:00:17;15.50;;;7.40;;
71814;SDS011;59659;41.520;23.794;2023-03-14T00:01:29;18.27;;;6.53;;
71814;SDS011;59659;41.520;23.794;2023-03-14T00:02:40;21.08;;;8.52;;
71814;SDS011;59659;41.520;23.794;2023-03-14T00:03:52;20.40;;;9.52;;
71814;SDS011;59659;41.520;23.794;2023-03-14T00:05:04;15.88;;;8.43;;
71814;SDS011;59659;41.520;23.794;2023-03-14T00:06:17;13.43;;;6.95;;
71814;SDS011;59659;41.520;23.794;2023-03-14T00:07:30;13.02;;;6.70;;
71814;SDS011;59659;41.520;23.794;2023-03-14T00:08:45;14.85;;;5.72;;
71814;SDS011;59659;41.520;23.794;2023-03-14T00:09:56;19.77;;;7.47;;
71814;SDS011;59659;41.520;23.794;2023-03-14T00:11:09;20.48;;;8.55;;
71814;SDS011;59659;41.520;23.794;2023-03-14T00:12:21;14.55;;;6.32;;
71814;SDS011;59659;41.520;23.794;2023-03-14T00:13:32;16.10;;;6.85;;
71814;SDS011;59659;41.520;23.794;2023-03-14T00:14:44;14.23;;;6.93;;
71814;SDS011;59659;41.520;23.794;2023-03-14T00:15:55;8.23;;;4.85;;
71814;SDS011;59659;41.520;23.794;2023-03-14T00:17:12;12.82;;;6.40;;
71814;SDS011;59659;41.520;23.794;2023-03-14T00:18:24;18.30;;;6.00;;
71814;SDS011;59659;41.520;23.794;2023-03-14T00:19:36;9.13;;;4.55;;
71814;SDS011;59659;41.520;23.794;2023-03-14T00:20:47;8.50;;;4.60;;
71814;SDS011;59659;41.520;23.794;2023-03-14T00:21:59;9.20;;;4.32;;
71814;SDS011;59659;41.520;23.794;2023-03-14T00:23:10;5.72;;;3.90;;
71814;SDS011;59659;41.520;23.794;2023-03-14T00:24:22;5.63;;;3.63;;
71814;SDS011;59659;41.520;23.794;2023-03-14T00:25:34;3.97;;;2.80;;
71814;SDS011;59659;41.520;23.794;2023-03-14T00:26:45;6.88;;;3.65;;
71814;SDS011;59659;41.520;23.794;2023-03-14T00:27:57;4.70;;;3.38;;
71814;SDS011;59659;41.520;23.794;2023-03-14T00:29:08;6.90;;;4.20;;
71814;SDS011;59659;41.520;23.794;2023-03-14T00:30:20;7.63;;;3.33;;
71814;SDS011;59659;41.520;23.794;2023-03-14T00:31:31;11.18;;;4.07;;
71814;SDS011;59659;41.520;23.794;2023-03-14T00:32:43;6.00;;;3.00;;
71814;SDS011;59659;41.520;23.794;2023-03-14T00:33:55;3.72;;;2.38;;
71814;SDS011;59659;41.520;23.794;2023-03-14T00:35:06;8.65;;;2.90;;
71814;SDS011;59659;41.520;23.794;2023-03-14T00:36:18;5.45;;;3.33;;
71814;SDS011;59659;41.520;23.794;2023-03-14T00:37:31;6.80;;;3.95;;
71814;SDS011;59659;41.520;23.794;2023-03-14T00:38:45;4.63;;;3.03;;
71814;SDS011;59659;41.520;23.794;2023-03-14T00:39:57;5.35;;;2.97;;
71814;SDS011;59659;41.520;23.794;2023-03-14T00:41:11;4.22;;;2.72;;
71814;SDS011;59659;41.520;23.794;2023-03-14T00:42:23;6.63;;;3.42;;
71814;SDS011;59659;41.520;23.794;2023-03-14T00:43:34;5.38;;;2.50;;
71814;SDS011;59659;41.520;23.794;2023-03-14T00:44:46;4.78;;;2.85;;
71814;SDS011;59659;41.520;23.794;2023-03-14T00:45:57;5.55;;;3.00;;
71814;SDS011;59659;41.520;23.794;2023-03-14T00:47:09;4.78;;;3.35;;
71814;SDS011;59659;41.520;23.794;2023-03-14T00:48:20;3.63;;;2.72;;
71814;SDS011;59659;41.520;23.794;2023-03-14T00:49:32;4.72;;;2.80;;
71814;SDS011;59659;41.520;23.794;2023-03-14T00:50:44;5.35;;;2.88;;
71814;SDS011;59659;41.520;23.794;2023-03-14T00:51:55;4.03;;;2.67;;
71814;SDS011;59659;41.520;23.794;2023-03-14T00:53:07;5.93;;;2.67;;
71814;SDS011;59659;41.520;23.794;2023-03-14T00:54:19;5.13;;;2.45;;
71814;SDS011;59659;41.520;23.794;2023-03-14T00:55:30;7.40;;;3.00;;
71814;SDS011;59659;41.520;23.794;2023-03-14T00:56:42;6.10;;;3.00;;
71814;SDS011;59659;41.520;23.794;2023-03-14T00:57:53;4.13;;;2.78;;
71814;SDS011;59659;41.520;23.794;2023-03-14T00:59:05;8.15;;;3.00;;
71814;SDS011;59659;41.520;23.794;2023-03-14T01:00:16;6.35;;;3.35;;
71814;SDS011;59659;41.520;23.794;2023-03-14T01:01:28;5.07;;;3.60;;
71814;SDS011;59659;41.520;23.794;2023-03-14T01:02:39;6.72;;;3.58;;
71814;SDS011;59659;41.520;23.794;2023-03-14T01:03:51;8.38;;;3.55;;
71814;SDS011;59659;41.520;23.794;2023-03-14T01:05:03;7.88;;;4.05;;
71814;SDS011;59659;41.520;23.794;2023-03-14T01:06:16;4.13;;;2.42;;
71814;SDS011;59659;41.520;23.794;2023-03-14T01:07:28;6.57;;;2.50;;
71814;SDS011;59659;41.520;23.794;2023-03-14T01:08:39;6.32;;;3.03;;
71814;SDS011;59659;41.520;23.794;2023-03-14T01:09:51;7.97;;;2.65;;
71814;SDS011;59659;41.520;23.794;2023-03-14T01:11:10;6.45;;;3.90;;
71814;SDS011;59659;41.520;23.794;2023-03-14T01:12:21;13.38;;;5.22;;
71814;SDS011;59659;41.520;23.794;2023-03-14T01:13:33;10.68;;;4.60;;
71814;SDS011;59659;41.520;23.794;2023-03-14T01:14:45;6.72;;;4.25;;
71814;SDS011;59659;41.520;23.794;2023-03-14T01:16:00;5.60;;;3.05;;
71814;SDS011;59659;41.520;23.794;2023-03-14T01:17:12;7.47;;;3.50;;
71814;SDS011;59659;41.520;23.794;2023-03-14T01:18:23;6.25;;;3.13;;
71814;SDS011;59659;41.520;23.794;2023-03-14T01:19:35;5.10;;;2.92;;
71814;SDS011;59659;41.520;23.794;2023-03-14T01:20:47;5.13;;;2.42;;
71814;SDS011;59659;41.520;23.794;2023-03-14T01:21:58;4.95;;;2.50;;
71814;SDS011;59659;41.520;23.794;2023-03-14T01:23:10;5.30;;;2.95;;
71814;SDS011;59659;41.520;23.794;2023-03-14T01:24:21;6.20;;;2.67;;
71814;SDS011;59659;41.520;23.794;2023-03-14T01:25:33;6.25;;;2.97;;
71814;SDS011;59659;41.520;23.794;2023-03-14T01:26:44;5.35;;;2.92;;
71814;SDS011;59659;41.520;23.794;2023-03-14T01:27:56;5.10;;;3.33;;
71814;SDS011;59659;41.520;23.794;2023-03-14T01:29:07;4.13;;;2.70;;
71814;SDS011;59659;41.520;23.794;2023-03-14T01:30:19;7.05;;;2.80;;
71814;SDS011;59659;41.520;23.794;2023-03-14T01:31:30;7.47;;;3.67;;
71814;SDS011;59659;41.520;23.794;2023-03-14T01:32:42;7.07;;;3.47;;
71814;SDS011;59659;41.520;23.794;2023-03-14T01:33:54;5.32;;;3.38;;
71814;SDS011;59659;41.520;23.794;2023-03-14T01:35:05;7.65;;;2.97;;
71814;SDS011;59659;41.520;23.794;2023-03-14T01:36:17;6.07;;;2.67;;
71814;SDS011;59659;41.520;23.794;2023-03-14T01:37:28;3.50;;;2.67;;
71814;SDS011;59659;41.520;23.794;2023-03-14T01:38:40;4.90;;;2.67;;
71814;SDS011;59659;41.520;23.794;2023-03-14T01:39:52;4.45;;;2.53;;
71814;SDS011;59659;41.520;23.794;2023-03-14T01:41:03;7.07;;;3.00;;
71814;SDS011;59659;41.520;23.794;2023-03-14T01:42:15;4.75;;;2.92;;
71814;SDS011;59659;41.520;23.794;2023-03-14T01:43:26;3.83;;;2.90;;
71814;SDS011;59659;41.520;23.794;2023-03-14T01:44:51;6.93;;;3.38;;
71814;SDS011;59659;41.520;23.794;2023-03-14T01:47:15;6.28;;;4.40;;
71814;SDS011;59659;41.520;23.794;2023-03-14T01:48:27;6.70;;;3.97;;
71814;SDS011;59659;41.520;23.794;2023-03-14T01:49:39;6.50;;;3.72;;
71814;SDS011;59659;41.520;23.794;2023-03-14T01:50:51;6.07;;;3.13;;
71814;SDS011;59659;41.520;23.794;2023-03-14T01:53:26;6.30;;;3.17;;
71814;SDS011;59659;41.520;23.794;2023-03-14T01:54:45;5.13;;;2.65;;
71814;SDS011;59659;41.520;23.794;2023-03-14T01:55:57;4.65;;;2.92;;
71814;SDS011;59659;41.520;23.794;2023-03-14T01:58:27;6.10;;;3.80;;
71814;SDS011;59659;41.520;23.794;2023-03-14T01:59:39;8.07;;;3.42;;
71814;SDS011;59659;41.520;23.794;2023-03-14T02:00:51;4.22;;;3.22;;
71814;SDS011;59659;41.520;23.794;2023-03-14T02:02:04;5.60;;;3.25;;
71814;SDS011;59659;41.520;23.794;2023-03-14T02:03:18;6.10;;;3.60;;
71814;SDS011;59659;41.520;23.794;2023-03-14T02:04:33;8.13;;;3.55;;
71814;SDS011;59659;41.520;23.794;2023-03-14T02:05:46;4.60;;;2.55;;
71814;SDS011;59659;41.520;23.794;2023-03-14T02:07:00;6.65;;;3.90;;
71814;SDS011;59659;41.520;23.794;2023-03-14T02:08:14;6.43;;;3.63;;
71814;SDS011;59659;41.520;23.794;2023-03-14T02:09:26;5.20;;;3.45;;
71814;SDS011;59659;41.520;23.794;2023-03-14T02:10:45;9.63;;;4.32;;
71814;SDS011;59659;41.520;23.794;2023-03-14T02:11:56;8.15;;;4.43;;
71814;SDS011;59659;41.520;23.794;2023-03-14T02:13:08;10.02;;;3.78;;
71814;SDS011;59659;41.520;23.794;2023-03-14T02:14:26;7.15;;;4.28;;
71814;SDS011;59659;41.520;23.794;2023-03-14T02:15:39;5.32;;;3.88;;
71814;SDS011;59659;41.520;23.794;2023-03-14T02:16:51;5.65;;;3.20;;
71814;SDS011;59659;41.520;23.794;2023-03-14T02:18:03;7.15;;;4.70;;
71814;SDS011;59659;41.520;23.794;2023-03-14T02:19:15;8.40;;;3.90;;
71814;SDS011;59659;41.520;23.794;2023-03-14T02:21:55;14.02;;;4.82;;
71814;SDS011;59659;41.520;23.794;2023-03-14T02:23:08;6.30;;;3.58;;
71814;SDS011;59659;41.520;23.794;2023-03-14T02:24:26;5.68;;;3.97;;
71814;SDS011;59659;41.520;23.794;2023-03-14T02:25:56;4.38;;;3.65;;
71814;SDS011;59659;41.520;23.794;2023-03-14T02:28:20;7.13;;;4.32;;
71814;SDS011;59659;41.520;23.794;2023-03-14T02:29:33;5.97;;;3.88;;
71814;SDS011;59659;41.520;23.794;2023-03-14T02:30:46;5.97;;;4.03;;
71814;SDS011;59659;41.520;23.794;2023-03-14T02:31:57;6.00;;;3.80;;
71814;SDS011;59659;41.520;23.794;2023-03-14T02:33:10;7.53;;;3.97;;
71814;SDS011;59659;41.520;23.794;2023-03-14T02:34:22;4.95;;;4.15;;
71814;SDS011;59659;41.520;23.794;2023-03-14T02:36:49;7.18;;;4.40;;
71814;SDS011;59659;41.520;23.794;2023-03-14T02:38:03;4.65;;;2.92;;
71814;SDS011;59659;41.520;23.794;2023-03-14T02:39:22;8.57;;;3.75;;
71814;SDS011;59659;41.520;23.794;2023-03-14T02:40:35;9.40;;;3.92;;
71814;SDS011;59659;41.520;23.794;2023-03-14T02:41:47;5.30;;;3.25;;
71814;SDS011;59659;41.520;23.794;2023-03-14T02:43:00;6.88;;;3.70;;
71814;SDS011;59659;41.520;23.794;2023-03-14T02:44:11;3.58;;;2.33;;
71814;SDS011;59659;41.520;23.794;2023-03-14T02:46:34;5.80;;;3.17;;
71814;SDS011;59659;41.520;23.794;2023-03-14T02:47:47;5.75;;;2.65;;
71814;SDS011;59659;41.520;23.794;2023-03-14T02:49:02;7.00;;;3.60;;
71814;SDS011;59659;41.520;23.794;2023-03-14T02:50:15;7.80;;;3.20;;
71814;SDS011;59659;41.520;23.794;2023-03-14T02:51:28;4.50;;;2.78;;
71814;SDS011;59659;41.520;23.794;2023-03-14T02:52:40;8.98;;;2.55;;
71814;SDS011;59659;41.520;23.794;2023-03-14T02:53:51;7.43;;;3.58;;
71814;SDS011;59659;41.520;23.794;2023-03-14T02:55:03;6.43;;;3.40;;
71814;SDS011;59659;41.520;23.794;2023-03-14T02:56:14;7.45;;;3.20;;
71814;SDS011;59659;41.520;23.794;2023-03-14T02:57:26;9.45;;;4.32;;
71814;SDS011;59659;41.520;23.794;2023-03-14T02:58:37;11.80;;;5.15;;
71814;SDS011;59659;41.520;23.794;2023-03-14T02:59:49;10.38;;;5.60;;
71814;SDS011;59659;41.520;23.794;2023-03-14T03:01:00;9.30;;;5.20;;
71814;SDS011;59659;41.520;23.794;2023-03-14T03:02:12;9.68;;;4.65;;
71814;SDS011;59659;41.520;23.794;2023-03-14T03:03:23;6.45;;;4.38;;
71814;SDS011;59659;41.520;23.794;2023-03-14T03:04:35;6.85;;;4.68;;
71814;SDS011;59659;41.520;23.794;2023-03-14T03:05:50;6.85;;;4.03;;
71814;SDS011;59659;41.520;23.794;2023-03-14T03:07:02;6.93;;;3.88;;
71814;SDS011;59659;41.520;23.794;2023-03-14T03:08:13;4.82;;;3.08;;
71814;SDS011;59659;41.520;23.794;2023-03-14T03:09:24;6.13;;;3.35;;
71814;SDS011;59659;41.520;23.794;2023-03-14T03:10:36;7.03;;;3.45;;
71814;SDS011;59659;41.520;23.794;2023-03-14T03:11:47;5.10;;;3.28;;
71814;SDS011;59659;41.520;23.794;2023-03-14T03:12:59;7.47;;;3.42;;
71814;SDS011;59659;41.520;23.794;2023-03-14T03:14:10;4.25;;;2.65;;
71814;SDS011;59659;41.520;23.794;2023-03-14T03:15:22;6.10;;;3.60;;
71814;SDS011;59659;41.520;23.794;2023-03-14T03:16:33;8.20;;;4.07;;
71814;SDS011;59659;41.520;23.794;2023-03-14T03:17:45;12.32;;;3.60;;
71814;SDS011;59659;41.520;23.794;2023-03-14T03:18:56;8.40;;;4.25;;
71814;SDS011;59659;41.520;23.794;2023-03-14T03:20:08;4.47;;;3.70;;
71814;SDS011;59659;41.520;23.794;2023-03-14T03:21:20;6.03;;;4.00;;
71814;SDS011;59659;41.520;23.794;2023-03-14T03:22:35;8.35;;;3.65;;
71814;SDS011;59659;41.520;23.794;2023-03-14T03:23:47;6.80;;;4.15;;
71814;SDS011;59659;41.520;23.794;2023-03-14T03:24:58;7.32;;;3.50;;
71814;SDS011;59659;41.520;23.794;2023-03-14T03:26:09;4.03;;;3.20;;
71814;SDS011;59659;41.520;23.794;2023-03-14T03:27:22;4.25;;;2.85;;
71814;SDS011;59659;41.520;23.794;2023-03-14T03:28:33;4.10;;;3.13;;
71814;SDS011;59659;41.520;23.794;2023-03-14T03:29:44;5.85;;;4.30;;
71814;SDS011;59659;41.520;23.794;2023-03-14T03:30:56;7.18;;;3.78;;
71814;SDS011;59659;41.520;23.794;2023-03-14T03:32:07;5.75;;;3.35;;
71814;SDS011;59659;41.520;23.794;2023-03-14T03:33:19;7.80;;;3.35;;
71814;SDS011;59659;41.520;23.794;2023-03-14T03:34:30;6.68;;;3.15;;
71814;SDS011;59659;41.520;23.794;2023-03-14T03:35:43;6.72;;;3.67;;
71814;SDS011;59659;41.520;23.794;2023-03-14T03:36:57;6.20;;;3.05;;
71814;SDS011;59659;41.520;23.794;2023-03-14T03:38:09;6.28;;;3.25;;
71814;SDS011;59659;41.520;23.794;2023-03-14T03:39:20;3.65;;;2.83;;
71814;SDS011;59659;41.520;23.794;2023-03-14T03:40:32;7.15;;;3.35;;
71814;SDS011;59659;41.520;23.794;2023-03-14T03:41:43;4.28;;;3.50;;
71814;SDS011;59659;41.520;23.794;2023-03-14T03:42:55;4.63;;;3.15;;
71814;SDS011;59659;41.520;23.794;2023-03-14T03:44:06;7.20;;;3.05;;
71814;SDS011;59659;41.520;23.794;2023-03-14T03:45:18;5.40;;;3.45;;
71814;SDS011;59659;41.520;23.794;2023-03-14T03:46:29;5.50;;;3.38;;
71814;SDS011;59659;41.520;23.794;2023-03-14T03:47:40;6.55;;;3.45;;
71814;SDS011;59659;41.520;23.794;2023-03-14T03:48:55;7.65;;;2.90;;
71814;SDS011;59659;41.520;23.794;2023-03-14T03:50:07;6.18;;;3.10;;
71814;SDS011;59659;41.520;23.794;2023-03-14T03:51:19;4.30;;;3.05;;
71814;SDS011;59659;41.520;23.794;2023-03-14T03:52:30;5.40;;;3.25;;
71814;SDS011;59659;41.520;23.794;2023-03-14T03:53:42;5.50;;;2.53;;
71814;SDS011;59659;41.520;23.794;2023-03-14T03:54:53;7.15;;;2.88;;
71814;SDS011;59659;41.520;23.794;2023-03-14T03:56:05;4.38;;;3.22;;
71814;SDS011;59659;41.520;23.794;2023-03-14T03:57:16;6.57;;;3.75;;
71814;SDS011;59659;41.520;23.794;2023-03-14T03:58:28;6.03;;;3.10;;
71814;SDS011;59659;41.520;23.794;2023-03-14T03:59:39;5.85;;;3.53;;
71814;SDS011;59659;41.520;23.794;2023-03-14T04:00:52;4.38;;;2.38;;
71814;SDS011;59659;41.520;23.794;2023-03-14T04:02:03;5.03;;;3.55;;
71814;SDS011;59659;41.520;23.794;2023-03-14T04:03:15;5.22;;;2.85;;
71814;SDS011;59659;41.520;23.794;2023-03-14T04:04:27;7.22;;;3.33;;
71814;SDS011;59659;41.520;23.794;2023-03-14T04:05:38;3.70;;;2.35;;
71814;SDS011;59659;41.520;23.794;2023-03-14T04:06:50;4.03;;;2.55;;
71814;SDS011;59659;41.520;23.794;2023-03-14T04:08:01;4.90;;;2.45;;
71814;SDS011;59659;41.520;23.794;2023-03-14T04:09:13;6.18;;;2.85;;
71814;SDS011;59659;41.520;23.794;2023-03-14T04:10:24;6.88;;;2.67;;
71814;SDS011;59659;41.520;23.794;2023-03-14T04:11:36;3.45;;;2.45;;
71814;SDS011;59659;41.520;23.794;2023-03-14T04:12:47;4.80;;;3.17;;
71814;SDS011;59659;41.520;23.794;2023-03-14T04:13:59;3.55;;;2.78;;
71814;SDS011;59659;41.520;23.794;2023-03-14T04:15:11;5.68;;;2.53;;
71814;SDS011;59659;41.520;23.794;2023-03-14T04:16:23;7.40;;;3.05;;
71814;SDS011;59659;41.520;23.794;2023-03-14T04:17:35;4.10;;;2.40;;
71814;SDS011;59659;41.520;23.794;2023-03-14T04:18:46;4.05;;;2.72;;
71814;SDS011;59659;41.520;23.794;2023-03-14T04:19:58;14.50;;;6.47;;
71814;SDS011;59659;41.520;23.794;2023-03-14T04:21:09;11.02;;;5.85;;
71814;SDS011;59659;41.520;23.794;2023-03-14T04:22:21;13.38;;;5.50;;
71814;SDS011;59659;41.520;23.794;2023-03-14T04:23:32;7.78;;;3.97;;
71814;SDS011;59659;41.520;23.794;2023-03-14T04:24:44;4.60;;;3.08;;
71814;SDS011;59659;41.520;23.794;2023-03-14T04:25:56;6.75;;;2.60;;
71814;SDS011;59659;41.520;23.794;2023-03-14T04:27:07;4.03;;;2.33;;
71814;SDS011;59659;41.520;23.794;2023-03-14T04:28:19;7.32;;;2.67;;
71814;SDS011;59659;41.520;23.794;2023-03-14T04:29:30;6.03;;;4.25;;
71814;SDS011;59659;41.520;23.794;2023-03-14T04:30:41;8.75;;;5.05;;
71814;SDS011;59659;41.520;23.794;2023-03-14T04:31:53;7.80;;;4.60;;
71814;SDS011;59659;41.520;23.794;2023-03-14T04:33:04;6.93;;;3.70;;
71814;SDS011;59659;41.520;23.794;2023-03-14T04:34:16;8.95;;;3.90;;
71814;SDS011;59659;41.520;23.794;2023-03-14T04:35:29;4.10;;;2.83;;
71814;SDS011;59659;41.520;23.794;2023-03-14T04:36:41;5.82;;;2.85;;
71814;SDS011;59659;41.520;23.794;2023-03-14T04:37:52;5.45;;;2.70;;
71814;SDS011;59659;41.520;23.794;2023-03-14T04:39:04;5.65;;;2.30;;
71814;SDS011;59659;41.520;23.794;2023-03-14T04:40:15;5.55;;;3.10;;
71814;SDS011;59659;41.520;23.794;2023-03-14T04:41:28;5.30;;;2.60;;
71814;SDS011;59659;41.520;23.794;2023-03-14T04:42:40;7.65;;;3.35;;
71814;SDS011;59659;41.520;23.794;2023-03-14T04:43:51;8.23;;;3.70;;
71814;SDS011;59659;41.520;23.794;2023-03-14T04:45:03;11.45;;;4.53;;
71814;SDS011;59659;41.520;23.794;2023-03-14T04:46:15;7.93;;;3.70;;
71814;SDS011;59659;41.520;23.794;2023-03-14T04:47:27;9.45;;;4.47;;
71814;SDS011;59659;41.520;23.794;2023-03-14T04:48:38;10.30;;;5.55;;
71814;SDS011;59659;41.520;23.794;2023-03-14T04:49:49;15.32;;;6.07;;
71814;SDS011;59659;41.520;23.794;2023-03-14T04:51:01;10.10;;;5.65;;
71814;SDS011;59659;41.520;23.794;2023-03-14T04:52:12;16.50;;;6.10;;
71814;SDS011;59659;41.520;23.794;2023-03-14T04:53:24;10.98;;;5.22;;
71814;SDS011;59659;41.520;23.794;2023-03-14T04:54:35;13.30;;;5.63;;
71814;SDS011;59659;41.520;23.794;2023-03-14T04:55:48;9.25;;;5.13;;
71814;SDS011;59659;41.520;23.794;2023-03-14T04:57:00;11.85;;;5.35;;
71814;SDS011;59659;41.520;23.794;2023-03-14T04:58:11;11.77;;;4.45;;
71814;SDS011;59659;41.520;23.794;2023-03-14T04:59:22;12.15;;;6.10;;
71814;SDS011;59659;41.520;23.794;2023-03-14T05:00:34;11.90;;;4.68;;
71814;SDS011;59659;41.520;23.794;2023-03-14T05:01:48;7.40;;;3.80;;
71814;SDS011;59659;41.520;23.794;2023-03-14T05:03:01;9.77;;;4.72;;
71814;SDS011;59659;41.520;23.794;2023-03-14T05:04:12;8.15;;;4.25;;
71814;SDS011;59659;41.520;23.794;2023-03-14T05:05:24;7.57;;;4.53;;
71814;SDS011;59659;41.520;23.794;2023-03-14T05:06:35;9.02;;;3.72;;
71814;SDS011;59659;41.520;23.794;2023-03-14T05:07:47;6.43;;;4.03;;
71814;SDS011;59659;41.520;23.794;2023-03-14T05:08:58;12.43;;;6.18;;
71814;SDS011;59659;41.520;23.794;2023-03-14T05:10:10;12.40;;;5.22;;
71814;SDS011;59659;41.520;23.794;2023-03-14T05:11:21;11.50;;;5.75;;
71814;SDS011;59659;41.520;23.794;2023-03-14T05:12:33;12.63;;;6.38;;
71814;SDS011;59659;41.520;23.794;2023-03-14T05:13:44;10.50;;;5.78;;
71814;SDS011;59659;41.520;23.794;2023-03-14T05:14:56;13.27;;;6.90;;
71814;SDS011;59659;41.520;23.794;2023-03-14T05:16:08;13.70;;;5.78;;
71814;SDS011;59659;41.520;23.794;2023-03-14T05:17:20;24.13;;;9.48;;
71814;SDS011;59659;41.520;23.794;2023-03-14T05:18:32;11.45;;;6.00;;
71814;SDS011;59659;41.520;23.794;2023-03-14T05:19:43;23.60;;;10.13;;
71814;SDS011;59659;41.520;23.794;2023-03-14T05:20:55;58.60;;;20.50;;
71814;SDS011;59659;41.520;23.794;2023-03-14T05:22:06;55.22;;;20.02;;
71814;SDS011;59659;41.520;23.794;2023-03-14T05:23:18;336.38;;;104.70;;
71814;SDS011;59659;41.520;23.794;2023-03-14T05:24:29;262.35;;;77.35;;
71814;SDS011;59659;41.520;23.794;2023-03-14T05:25:42;342.55;;;102.32;;
71814;SDS011;59659;41.520;23.794;2023-03-14T05:26:54;428.75;;;120.85;;
71814;SDS011;59659;41.520;23.794;2023-03-14T05:28:05;304.30;;;86.00;;
71814;SDS011;59659;41.520;23.794;2023-03-14T05:29:17;105.15;;;35.90;;
71814;SDS011;59659;41.520;23.794;2023-03-14T05:30:28;38.15;;;16.20;;
71814;SDS011;59659;41.520;23.794;2023-03-14T05:31:42;39.63;;;16.23;;
71814;SDS011;59659;41.520;23.794;2023-03-14T05:32:53;72.53;;;28.95;;
71814;SDS011;59659;41.520;23.794;2023-03-14T05:34:05;44.35;;;16.95;;
71814;SDS011;59659;41.520;23.794;2023-03-14T05:35:16;36.50;;;17.25;;
71814;SDS011;59659;41.520;23.794;2023-03-14T05:36:28;20.48;;;10.02;;
71814;SDS011;59659;41.520;23.794;2023-03-14T05:37:39;15.30;;;6.32;;
71814;SDS011;59659;41.520;23.794;2023-03-14T05:38:51;15.32;;;6.28;;
71814;SDS011;59659;41.520;23.794;2023-03-14T05:40:03;21.00;;;10.23;;
71814;SDS011;59659;41.520;23.794;2023-03-14T05:41:15;6.72;;;4.60;;
71814;SDS011;59659;41.520;23.794;2023-03-14T05:42:27;13.80;;;6.07;;
71814;SDS011;59659;41.520;23.794;2023-03-14T05:43:38;15.57;;;7.45;;
71814;SDS011;59659;41.520;23.794;2023-03-14T05:44:50;13.88;;;6.70;;
71814;SDS011;59659;41.520;23.794;2023-03-14T05:46:02;15.55;;;7.68;;
71814;SDS011;59659;41.520;23.794;2023-03-14T05:47:13;13.13;;;6.40;;
71814;SDS011;59659;41.520;23.794;2023-03-14T05:48:25;13.15;;;5.80;;
71814;SDS011;59659;41.520;23.794;2023-03-14T05:49:36;8.98;;;5.93;;
71814;SDS011;59659;41.520;23.794;2023-03-14T05:50:48;10.82;;;6.25;;
71814;SDS011;59659;41.520;23.794;2023-03-14T05:51:59;11.57;;;6.85;;
71814;SDS011;59659;41.520;23.794;2023-03-14T05:53:11;19.10;;;9.07;;
71814;SDS011;59659;41.520;23.794;2023-03-14T05:54:23;27.33;;;13.80;;
71814;SDS011;59659;41.520;23.794;2023-03-14T05:55:34;21.30;;;9.98;;
71814;SDS011;59659;41.520;23.794;2023-03-14T05:56:45;23.42;;;12.60;;
71814;SDS011;59659;41.520;23.794;2023-03-14T05:57:57;14.70;;;9.63;;
71814;SDS011;59659;41.520;23.794;2023-03-14T05:59:08;21.17;;;8.95;;
71814;SDS011;59659;41.520;23.794;2023-03-14T06:00:21;24.85;;;10.57;;
71814;SDS011;59659;41.520;23.794;2023-03-14T06:01:32;27.98;;;10.48;;
71814;SDS011;59659;41.520;23.794;2023-03-14T06:02:44;22.45;;;10.93;;
71814;SDS011;59659;41.520;23.794;2023-03-14T06:03:55;14.50;;;8.73;;
71814;SDS011;59659;41.520;23.794;2023-03-14T06:05:07;19.88;;;11.18;;
71814;SDS011;59659;41.520;23.794;2023-03-14T06:06:19;22.08;;;11.88;;
71814;SDS011;59659;41.520;23.794;2023-03-14T06:07:30;15.65;;;9.25;;
71814;SDS011;59659;41.520;23.794;2023-03-14T06:08:42;19.17;;;9.18;;
71814;SDS011;59659;41.520;23.794;2023-03-14T06:09:53;16.15;;;8.18;;
71814;SDS011;59659;41.520;23.794;2023-03-14T06:11:05;16.05;;;9.15;;
71814;SDS011;59659;41.520;23.794;2023-03-14T06:12:16;14.75;;;8.10;;
71814;SDS011;59659;41.520;23.794;2023-03-14T06:13:29;12.13;;;6.55;;
71814;SDS011;59659;41.520;23.794;2023-03-14T06:14:40;14.82;;;7.95;;
71814;SDS011;59659;41.520;23.794;2023-03-14T06:15:52;17.27;;;10.15;;
71814;SDS011;59659;41.520;23.794;2023-03-14T06:17:03;26.85;;;10.98;;
71814;SDS011;59659;41.520;23.794;2023-03-14T06:18:15;20.35;;;10.90;;
71814;SDS011;59659;41.520;23.794;2023-03-14T06:19:26;18.77;;;11.35;;
71814;SDS011;59659;41.520;23.794;2023-03-14T06:20:38;21.23;;;10.57;;
71814;SDS011;59659;41.520;23.794;2023-03-14T06:21:52;19.48;;;9.80;;
71814;SDS011;59659;41.520;23.794;2023-03-14T06:23:04;17.27;;;9.80;;
71814;SDS011;59659;41.520;23.794;2023-03-14T06:24:16;16.90;;;8.55;;
71814;SDS011;59659;41.520;23.794;2023-03-14T06:25:27;15.27;;;8.02;;
71814;SDS011;59659;41.520;23.794;2023-03-14T06:26:39;13.02;;;7.65;;
71814;SDS011;59659;41.520;23.794;2023-03-14T06:27:50;15.40;;;8.40;;
71814;SDS011;59659;41.520;23.794;2023-03-14T06:29:02;12.70;;;6.65;;
71814;SDS011;59659;41.520;23.794;2023-03-14T06:30:14;12.43;;;7.43;;
71814;SDS011;59659;41.520;23.794;2023-03-14T06:31:26;18.33;;;8.05;;
71814;SDS011;59659;41.520;23.794;2023-03-14T06:32:37;8.93;;;6.40;;
71814;SDS011;59659;41.520;23.794;2023-03-14T06:33:49;11.32;;;5.15;;
71814;SDS011;59659;41.520;23.794;2023-03-14T06:35:00;7.30;;;3.78;;
71814;SDS011;59659;41.520;23.794;2023-03-14T06:36:12;11.55;;;5.72;;
71814;SDS011;59659;41.520;23.794;2023-03-14T06:37:23;8.23;;;4.28;;
71814;SDS011;59659;41.520;23.794;2023-03-14T06:38:35;9.75;;;6.00;;
71814;SDS011;59659;41.520;23.794;2023-03-14T06:39:46;8.77;;;4.50;;
71814;SDS011;59659;41.520;23.794;2023-03-14T06:41:04;9.60;;;6.50;;
71814;SDS011;59659;41.520;23.794;2023-03-14T06:42:16;6.43;;;4.28;;
71814;SDS011;59659;41.520;23.794;2023-03-14T06:43:27;10.90;;;4.85;;
71814;SDS011;59659;41.520;23.794;2023-03-14T06:44:39;11.15;;;4.85;;
71814;SDS011;59659;41.520;23.794;2023-03-14T06:45:50;7.65;;;4.80;;
71814;SDS011;59659;41.520;23.794;2023-03-14T06:47:02;7.22;;;4.97;;
71814;SDS011;59659;41.520;23.794;2023-03-14T06:48:13;9.00;;;5.13;;
71814;SDS011;59659;41.520;23.794;2023-03-14T06:49:25;10.60;;;6.90;;
71814;SDS011;59659;41.520;23.794;2023-03-14T06:50:36;11.90;;;7.35;;
71814;SDS011;59659;41.520;23.794;2023-03-14T06:51:48;10.30;;;6.00;;
71814;SDS011;59659;41.520;23.794;2023-03-14T06:53:00;10.18;;;5.80;;
71814;SDS011;59659;41.520;23.794;2023-03-14T06:54:11;17.77;;;6.72;;
71814;SDS011;59659;41.520;23.794;2023-03-14T06:55:23;9.57;;;5.35;;
71814;SDS011;59659;41.520;23.794;2023-03-14T06:56:35;17.95;;;9.77;;
71814;SDS011;59659;41.520;23.794;2023-03-14T06:57:47;11.02;;;6.70;;
71814;SDS011;59659;41.520;23.794;2023-03-14T06:58:58;8.40;;;4.85;;
71814;SDS011;59659;41.520;23.794;2023-03-14T07:00:10;14.85;;;7.95;;
71814;SDS011;59659;41.520;23.794;2023-03-14T07:01:28;10.32;;;5.10;;
71814;SDS011;59659;41.520;23.794;2023-03-14T07:02:40;6.65;;;4.18;;
71814;SDS011;59659;41.520;23.794;2023-03-14T07:03:53;10.52;;;4.20;;
71814;SDS011;59659;41.520;23.794;2023-03-14T07:05:05;6.50;;;4.10;;
71814;SDS011;59659;41.520;23.794;2023-03-14T07:06:17;7.30;;;4.13;;
71814;SDS011;59659;41.520;23.794;2023-03-14T07:07:28;10.25;;;5.95;;
71814;SDS011;59659;41.520;23.794;2023-03-14T07:08:40;11.25;;;5.50;;
71814;SDS011;59659;41.520;23.794;2023-03-14T07:09:53;6.25;;;3.90;;
71814;SDS011;59659;41.520;23.794;2023-03-14T07:11:05;7.38;;;3.28;;
71814;SDS011;59659;41.520;23.794;2023-03-14T07:12:16;6.15;;;4.00;;
71814;SDS011;59659;41.520;23.794;2023-03-14T07:13:28;4.45;;;3.15;;